sensor_id;sensor_type;location;lat;lon;timestamp;P1;durP1;ratioP1;P2;durP2;ratioP2
70532;SDS011;58088;51.186;17.130;2024-03-02T00:00:23;59.10;;;30.90;;
70532;SDS011;58088;51.186;17.130;2024-03-02T00:02:51;57.00;;;30.40;;
70532;SDS011;58088;51.186;17.130;2024-03-02T00:05:20;60.70;;;31.40;;
70532;SDS011;58088;51.186;17.130;2024-03-02T00:07:55;61.00;;;31.90;;
70532;SDS011;58088;51.186;17.130;2024-03-02T00:10:25;51.60;;;28.10;;
70532;SDS011;58088;51.186;17.130;2024-03-02T00:12:57;65.10;;;32.30;;
70532;SDS011;58088;51.186;17.130;2024-03-02T00:17:56;62.10;;;31.50;;
70532;SDS011;58088;51.186;17.130;2024-03-02T00:20:25;62.60;;;32.00;;
70532;SDS011;58088;51.186;17.130;2024-03-02T00:23:05;58.10;;;30.80;;
70532;SDS011;58088;51.186;17.130;2024-03-02T00:25:52;54.00;;;28.80;;
70532;SDS011;58088;51.186;17.130;2024-03-02T00:28:21;60.50;;;30.10;;
70532;SDS011;58088;51.186;17.130;2024-03-02T00:33:36;68.90;;;33.40;;
70532;SDS011;58088;51.186;17.130;2024-03-02T00:36:06;58.90;;;30.50;;
70532;SDS011;58088;51.186;17.130;2024-03-02T00:38:34;65.60;;;32.10;;
70532;SDS011;58088;51.186;17.130;2024-03-02T00:41:19;59.20;;;30.40;;
70532;SDS011;58088;51.186;17.130;2024-03-02T00:44:04;65.10;;;34.30;;
70532;SDS011;58088;51.186;17.130;2024-03-02T00:46:36;62.80;;;32.70;;
70532;SDS011;58088;51.186;17.130;2024-03-02T00:49:17;65.20;;;33.60;;
70532;SDS011;58088;51.186;17.130;2024-03-02T00:51:48;66.60;;;32.20;;
70532;SDS011;58088;51.186;17.130;2024-03-02T00:54:15;64.70;;;34.30;;
70532;SDS011;58088;51.186;17.130;2024-03-02T00:56:47;67.00;;;32.30;;
70532;SDS011;58088;51.186;17.130;2024-03-02T00:59:14;63.50;;;32.20;;
70532;SDS011;58088;51.186;17.130;2024-03-02T01:01:40;66.00;;;33.00;;
70532;SDS011;58088;51.186;17.130;2024-03-02T01:04:08;65.50;;;32.00;;
70532;SDS011;58088;51.186;17.130;2024-03-02T01:06:37;65.30;;;33.20;;
70532;SDS011;58088;51.186;17.130;2024-03-02T01:09:04;59.90;;;30.00;;
70532;SDS011;58088;51.186;17.130;2024-03-02T01:11:30;59.60;;;30.60;;
70532;SDS011;58088;51.186;17.130;2024-03-02T01:13:56;66.40;;;32.90;;
70532;SDS011;58088;51.186;17.130;2024-03-02T01:16:22;64.00;;;32.80;;
70532;SDS011;58088;51.186;17.130;2024-03-02T01:18:49;68.80;;;34.50;;
70532;SDS011;58088;51.186;17.130;2024-03-02T01:21:15;64.30;;;33.70;;
70532;SDS011;58088;51.186;17.130;2024-03-02T01:23:41;64.10;;;33.00;;
70532;SDS011;58088;51.186;17.130;2024-03-02T01:26:07;69.80;;;33.60;;
70532;SDS011;58088;51.186;17.130;2024-03-02T01:28:34;66.90;;;32.90;;
70532;SDS011;58088;51.186;17.130;2024-03-02T01:31:00;68.20;;;34.20;;
70532;SDS011;58088;51.186;17.130;2024-03-02T01:33:27;64.80;;;32.20;;
70532;SDS011;58088;51.186;17.130;2024-03-02T01:35:53;65.40;;;33.90;;
70532;SDS011;58088;51.186;17.130;2024-03-02T01:38:20;66.40;;;32.90;;
70532;SDS011;58088;51.186;17.130;2024-03-02T01:40:46;68.30;;;34.40;;
70532;SDS011;58088;51.186;17.130;2024-03-02T01:43:12;65.70;;;33.00;;
70532;SDS011;58088;51.186;17.130;2024-03-02T01:45:39;62.80;;;30.20;;
70532;SDS011;58088;51.186;17.130;2024-03-02T01:48:06;61.10;;;29.90;;
70532;SDS011;58088;51.186;17.130;2024-03-02T01:50:33;70.40;;;34.00;;
70532;SDS011;58088;51.186;17.130;2024-03-02T01:53:00;67.40;;;33.80;;
70532;SDS011;58088;51.186;17.130;2024-03-02T01:55:30;66.90;;;34.20;;
70532;SDS011;58088;51.186;17.130;2024-03-02T01:57:57;57.20;;;28.60;;
70532;SDS011;58088;51.186;17.130;2024-03-02T02:00:24;69.00;;;32.80;;
70532;SDS011;58088;51.186;17.130;2024-03-02T02:02:53;64.80;;;33.20;;
70532;SDS011;58088;51.186;17.130;2024-03-02T02:05:20;71.40;;;33.90;;
70532;SDS011;58088;51.186;17.130;2024-03-02T02:07:46;68.00;;;34.20;;
70532;SDS011;58088;51.186;17.130;2024-03-02T02:10:13;57.20;;;29.50;;
70532;SDS011;58088;51.186;17.130;2024-03-02T02:12:39;66.10;;;31.80;;
70532;SDS011;58088;51.186;17.130;2024-03-02T02:15:24;64.70;;;32.60;;
70532;SDS011;58088;51.186;17.130;2024-03-02T02:17:55;65.80;;;32.10;;
70532;SDS011;58088;51.186;17.130;2024-03-02T02:20:23;68.70;;;32.40;;
70532;SDS011;58088;51.186;17.130;2024-03-02T02:22:57;68.40;;;31.90;;
70532;SDS011;58088;51.186;17.130;2024-03-02T02:25:28;63.10;;;29.40;;
70532;SDS011;58088;51.186;17.130;2024-03-02T02:27:55;65.10;;;30.60;;
70532;SDS011;58088;51.186;17.130;2024-03-02T02:30:26;65.50;;;31.00;;
70532;SDS011;58088;51.186;17.130;2024-03-02T02:32:54;65.40;;;31.20;;
70532;SDS011;58088;51.186;17.130;2024-03-02T02:35:20;63.80;;;30.80;;
70532;SDS011;58088;51.186;17.130;2024-03-02T02:37:47;64.40;;;31.40;;
70532;SDS011;58088;51.186;17.130;2024-03-02T02:40:14;62.90;;;31.10;;
70532;SDS011;58088;51.186;17.130;2024-03-02T02:42:41;61.00;;;29.00;;
70532;SDS011;58088;51.186;17.130;2024-03-02T02:45:07;64.60;;;31.70;;
70532;SDS011;58088;51.186;17.130;2024-03-02T02:47:34;65.00;;;30.20;;
70532;SDS011;58088;51.186;17.130;2024-03-02T02:50:04;70.10;;;31.90;;
70532;SDS011;58088;51.186;17.130;2024-03-02T02:52:34;62.40;;;30.00;;
70532;SDS011;58088;51.186;17.130;2024-03-02T02:55:06;62.60;;;31.00;;
70532;SDS011;58088;51.186;17.130;2024-03-02T02:57:35;61.30;;;30.50;;
70532;SDS011;58088;51.186;17.130;2024-03-02T03:00:24;65.60;;;31.80;;
70532;SDS011;58088;51.186;17.130;2024-03-02T03:03:08;60.30;;;29.70;;
70532;SDS011;58088;51.186;17.130;2024-03-02T03:05:35;59.90;;;30.20;;
70532;SDS011;58088;51.186;17.130;2024-03-02T03:08:01;53.60;;;26.10;;
70532;SDS011;58088;51.186;17.130;2024-03-02T03:10:27;61.20;;;28.60;;
70532;SDS011;58088;51.186;17.130;2024-03-02T03:12:55;57.60;;;28.70;;
70532;SDS011;58088;51.186;17.130;2024-03-02T03:15:22;60.30;;;30.60;;
70532;SDS011;58088;51.186;17.130;2024-03-02T03:17:50;58.20;;;28.50;;
70532;SDS011;58088;51.186;17.130;2024-03-02T03:20:17;57.30;;;28.30;;
70532;SDS011;58088;51.186;17.130;2024-03-02T03:22:44;57.50;;;27.60;;
70532;SDS011;58088;51.186;17.130;2024-03-02T03:25:11;58.90;;;28.90;;
70532;SDS011;58088;51.186;17.130;2024-03-02T03:27:38;65.10;;;31.30;;
70532;SDS011;58088;51.186;17.130;2024-03-02T03:30:06;64.90;;;30.80;;
70532;SDS011;58088;51.186;17.130;2024-03-02T03:32:33;60.40;;;27.50;;
70532;SDS011;58088;51.186;17.130;2024-03-02T03:35:01;63.40;;;29.90;;
70532;SDS011;58088;51.186;17.130;2024-03-02T03:37:29;60.80;;;29.20;;
70532;SDS011;58088;51.186;17.130;2024-03-02T03:40:00;57.80;;;27.10;;
70532;SDS011;58088;51.186;17.130;2024-03-02T03:42:29;57.90;;;29.70;;
70532;SDS011;58088;51.186;17.130;2024-03-02T03:44:56;62.50;;;30.90;;
70532;SDS011;58088;51.186;17.130;2024-03-02T03:47:24;62.50;;;31.10;;
70532;SDS011;58088;51.186;17.130;2024-03-02T03:49:51;63.50;;;30.90;;
70532;SDS011;58088;51.186;17.130;2024-03-02T03:52:18;62.70;;;31.20;;
70532;SDS011;58088;51.186;17.130;2024-03-02T03:54:47;58.10;;;29.10;;
70532;SDS011;58088;51.186;17.130;2024-03-02T03:57:13;59.70;;;28.90;;
70532;SDS011;58088;51.186;17.130;2024-03-02T03:59:39;57.60;;;28.90;;
70532;SDS011;58088;51.186;17.130;2024-03-02T04:02:05;57.40;;;28.80;;
70532;SDS011;58088;51.186;17.130;2024-03-02T04:04:31;53.30;;;26.70;;
70532;SDS011;58088;51.186;17.130;2024-03-02T04:06:59;46.30;;;23.50;;
70532;SDS011;58088;51.186;17.130;2024-03-02T04:09:25;57.70;;;28.00;;
70532;SDS011;58088;51.186;17.130;2024-03-02T04:11:52;55.60;;;28.50;;
70532;SDS011;58088;51.186;17.130;2024-03-02T04:14:18;57.90;;;27.80;;
70532;SDS011;58088;51.186;17.130;2024-03-02T04:16:44;54.10;;;26.80;;
70532;SDS011;58088;51.186;17.130;2024-03-02T04:19:11;57.30;;;26.90;;
70532;SDS011;58088;51.186;17.130;2024-03-02T04:21:37;55.60;;;26.60;;
70532;SDS011;58088;51.186;17.130;2024-03-02T04:24:03;56.50;;;27.80;;
70532;SDS011;58088;51.186;17.130;2024-03-02T04:26:30;57.60;;;27.40;;
70532;SDS011;58088;51.186;17.130;2024-03-02T04:28:56;55.50;;;27.80;;
70532;SDS011;58088;51.186;17.130;2024-03-02T04:31:22;55.20;;;27.30;;
70532;SDS011;58088;51.186;17.130;2024-03-02T04:33:48;55.30;;;26.90;;
70532;SDS011;58088;51.186;17.130;2024-03-02T04:36:15;55.40;;;27.40;;
70532;SDS011;58088;51.186;17.130;2024-03-02T04:38:41;59.50;;;26.70;;
70532;SDS011;58088;51.186;17.130;2024-03-02T04:41:07;54.00;;;27.10;;
70532;SDS011;58088;51.186;17.130;2024-03-02T04:43:34;52.20;;;26.70;;
70532;SDS011;58088;51.186;17.130;2024-03-02T04:46:01;55.80;;;26.70;;
70532;SDS011;58088;51.186;17.130;2024-03-02T04:48:27;53.20;;;26.50;;
70532;SDS011;58088;51.186;17.130;2024-03-02T04:50:53;49.70;;;23.10;;
70532;SDS011;58088;51.186;17.130;2024-03-02T04:53:19;55.80;;;26.50;;
70532;SDS011;58088;51.186;17.130;2024-03-02T04:55:45;55.20;;;25.80;;
70532;SDS011;58088;51.186;17.130;2024-03-02T04:58:31;51.90;;;26.00;;
70532;SDS011;58088;51.186;17.130;2024-03-02T05:00:57;52.20;;;25.40;;
70532;SDS011;58088;51.186;17.130;2024-03-02T05:03:23;53.70;;;26.50;;
70532;SDS011;58088;51.186;17.130;2024-03-02T05:05:50;51.80;;;24.90;;
70532;SDS011;58088;51.186;17.130;2024-03-02T05:08:16;51.30;;;25.30;;
70532;SDS011;58088;51.186;17.130;2024-03-02T05:10:42;56.50;;;26.40;;
70532;SDS011;58088;51.186;17.130;2024-03-02T05:13:08;54.30;;;25.70;;
70532;SDS011;58088;51.186;17.130;2024-03-02T05:15:34;55.50;;;28.30;;
70532;SDS011;58088;51.186;17.130;2024-03-02T05:18:01;56.30;;;28.30;;
70532;SDS011;58088;51.186;17.130;2024-03-02T05:20:30;60.10;;;28.90;;
70532;SDS011;58088;51.186;17.130;2024-03-02T05:22:57;57.20;;;27.70;;
70532;SDS011;58088;51.186;17.130;2024-03-02T05:25:23;53.60;;;27.00;;
70532;SDS011;58088;51.186;17.130;2024-03-02T05:27:49;58.10;;;28.80;;
70532;SDS011;58088;51.186;17.130;2024-03-02T05:30:15;52.80;;;27.60;;
70532;SDS011;58088;51.186;17.130;2024-03-02T05:32:41;54.60;;;27.50;;
70532;SDS011;58088;51.186;17.130;2024-03-02T05:35:07;53.40;;;28.00;;
70532;SDS011;58088;51.186;17.130;2024-03-02T05:37:34;52.90;;;27.40;;
70532;SDS011;58088;51.186;17.130;2024-03-02T05:40:00;48.00;;;25.10;;
70532;SDS011;58088;51.186;17.130;2024-03-02T05:42:26;55.60;;;28.20;;
70532;SDS011;58088;51.186;17.130;2024-03-02T05:44:53;56.50;;;27.70;;
70532;SDS011;58088;51.186;17.130;2024-03-02T05:47:20;54.60;;;26.50;;
70532;SDS011;58088;51.186;17.130;2024-03-02T05:49:46;60.00;;;28.90;;
70532;SDS011;58088;51.186;17.130;2024-03-02T05:52:12;60.10;;;29.30;;
70532;SDS011;58088;51.186;17.130;2024-03-02T05:54:38;54.00;;;25.80;;
70532;SDS011;58088;51.186;17.130;2024-03-02T05:57:05;53.50;;;28.00;;
70532;SDS011;58088;51.186;17.130;2024-03-02T05:59:57;55.60;;;27.30;;
70532;SDS011;58088;51.186;17.130;2024-03-02T06:02:24;57.00;;;27.90;;
70532;SDS011;58088;51.186;17.130;2024-03-02T06:04:50;62.90;;;30.50;;
70532;SDS011;58088;51.186;17.130;2024-03-02T06:07:17;60.70;;;29.30;;
70532;SDS011;58088;51.186;17.130;2024-03-02T06:09:43;56.50;;;28.00;;
70532;SDS011;58088;51.186;17.130;2024-03-02T06:12:10;60.00;;;28.10;;
70532;SDS011;58088;51.186;17.130;2024-03-02T06:14:36;56.40;;;27.60;;
70532;SDS011;58088;51.186;17.130;2024-03-02T06:17:02;59.40;;;27.60;;
70532;SDS011;58088;51.186;17.130;2024-03-02T06:19:29;55.80;;;27.20;;
70532;SDS011;58088;51.186;17.130;2024-03-02T06:21:55;54.00;;;27.30;;
70532;SDS011;58088;51.186;17.130;2024-03-02T06:24:22;56.90;;;28.80;;
70532;SDS011;58088;51.186;17.130;2024-03-02T06:26:48;55.80;;;27.50;;
70532;SDS011;58088;51.186;17.130;2024-03-02T06:29:14;52.40;;;28.10;;
70532;SDS011;58088;51.186;17.130;2024-03-02T06:31:40;53.10;;;28.00;;
70532;SDS011;58088;51.186;17.130;2024-03-02T06:34:07;59.20;;;28.10;;
70532;SDS011;58088;51.186;17.130;2024-03-02T06:36:34;53.10;;;26.80;;
70532;SDS011;58088;51.186;17.130;2024-03-02T06:39:03;58.00;;;27.20;;
70532;SDS011;58088;51.186;17.130;2024-03-02T06:41:38;55.40;;;27.60;;
70532;SDS011;58088;51.186;17.130;2024-03-02T06:44:04;58.00;;;28.30;;
70532;SDS011;58088;51.186;17.130;2024-03-02T06:46:32;60.90;;;29.90;;
70532;SDS011;58088;51.186;17.130;2024-03-02T06:48:58;55.40;;;28.80;;
70532;SDS011;58088;51.186;17.130;2024-03-02T06:51:24;55.70;;;28.70;;
70532;SDS011;58088;51.186;17.130;2024-03-02T06:53:51;57.00;;;30.00;;
70532;SDS011;58088;51.186;17.130;2024-03-02T06:56:17;55.00;;;27.50;;
70532;SDS011;58088;51.186;17.130;2024-03-02T06:58:43;57.80;;;29.10;;
70532;SDS011;58088;51.186;17.130;2024-03-02T07:01:10;58.40;;;30.30;;
70532;SDS011;58088;51.186;17.130;2024-03-02T07:03:36;47.20;;;24.00;;
70532;SDS011;58088;51.186;17.130;2024-03-02T07:06:02;49.50;;;26.00;;
70532;SDS011;58088;51.186;17.130;2024-03-02T07:08:28;46.30;;;23.30;;
70532;SDS011;58088;51.186;17.130;2024-03-02T07:10:55;62.00;;;31.30;;
70532;SDS011;58088;51.186;17.130;2024-03-02T07:13:21;55.60;;;28.60;;
70532;SDS011;58088;51.186;17.130;2024-03-02T07:15:48;57.30;;;29.60;;
70532;SDS011;58088;51.186;17.130;2024-03-02T07:18:32;57.50;;;29.90;;
70532;SDS011;58088;51.186;17.130;2024-03-02T07:21:08;58.50;;;30.10;;
70532;SDS011;58088;51.186;17.130;2024-03-02T07:23:34;55.40;;;28.20;;
70532;SDS011;58088;51.186;17.130;2024-03-02T07:26:00;57.60;;;29.50;;
70532;SDS011;58088;51.186;17.130;2024-03-02T07:28:27;56.70;;;30.80;;
70532;SDS011;58088;51.186;17.130;2024-03-02T07:31:03;51.70;;;26.00;;
70532;SDS011;58088;51.186;17.130;2024-03-02T07:33:30;54.20;;;27.00;;
70532;SDS011;58088;51.186;17.130;2024-03-02T07:35:57;63.00;;;31.80;;
70532;SDS011;58088;51.186;17.130;2024-03-02T07:38:28;62.70;;;31.90;;
70532;SDS011;58088;51.186;17.130;2024-03-02T07:40:55;57.70;;;30.50;;
70532;SDS011;58088;51.186;17.130;2024-03-02T07:43:22;59.80;;;32.20;;
70532;SDS011;58088;51.186;17.130;2024-03-02T07:45:48;56.50;;;30.70;;
70532;SDS011;58088;51.186;17.130;2024-03-02T07:48:15;60.50;;;32.30;;
70532;SDS011;58088;51.186;17.130;2024-03-02T07:50:41;53.90;;;28.40;;
70532;SDS011;58088;51.186;17.130;2024-03-02T07:53:08;57.00;;;29.00;;
70532;SDS011;58088;51.186;17.130;2024-03-02T07:55:35;60.90;;;30.50;;
70532;SDS011;58088;51.186;17.130;2024-03-02T07:58:01;60.00;;;30.40;;
70532;SDS011;58088;51.186;17.130;2024-03-02T08:00:28;55.50;;;30.80;;
70532;SDS011;58088;51.186;17.130;2024-03-02T08:02:55;53.70;;;27.20;;
70532;SDS011;58088;51.186;17.130;2024-03-02T08:05:22;61.10;;;30.70;;
70532;SDS011;58088;51.186;17.130;2024-03-02T08:07:48;47.10;;;24.40;;
70532;SDS011;58088;51.186;17.130;2024-03-02T08:10:18;51.80;;;29.30;;
70532;SDS011;58088;51.186;17.130;2024-03-02T08:12:45;55.50;;;29.50;;
70532;SDS011;58088;51.186;17.130;2024-03-02T08:15:11;52.30;;;27.40;;
70532;SDS011;58088;51.186;17.130;2024-03-02T08:17:40;48.70;;;27.40;;
70532;SDS011;58088;51.186;17.130;2024-03-02T08:20:14;51.70;;;28.70;;
70532;SDS011;58088;51.186;17.130;2024-03-02T08:22:40;50.70;;;27.80;;
70532;SDS011;58088;51.186;17.130;2024-03-02T08:25:07;52.60;;;29.00;;
70532;SDS011;58088;51.186;17.130;2024-03-02T08:27:34;52.70;;;29.00;;
70532;SDS011;58088;51.186;17.130;2024-03-02T08:30:00;44.90;;;23.90;;
70532;SDS011;58088;51.186;17.130;2024-03-02T08:32:26;53.20;;;29.60;;
70532;SDS011;58088;51.186;17.130;2024-03-02T08:34:52;47.80;;;27.70;;
70532;SDS011;58088;51.186;17.130;2024-03-02T08:37:19;46.20;;;26.80;;
70532;SDS011;58088;51.186;17.130;2024-03-02T08:39:45;47.90;;;27.70;;
70532;SDS011;58088;51.186;17.130;2024-03-02T08:42:12;49.40;;;27.00;;
70532;SDS011;58088;51.186;17.130;2024-03-02T08:44:38;50.80;;;28.50;;
70532;SDS011;58088;51.186;17.130;2024-03-02T08:47:04;46.30;;;27.10;;
70532;SDS011;58088;51.186;17.130;2024-03-02T08:49:30;50.40;;;28.60;;
70532;SDS011;58088;51.186;17.130;2024-03-02T08:51:57;47.70;;;25.80;;
70532;SDS011;58088;51.186;17.130;2024-03-02T08:54:23;42.50;;;25.30;;
70532;SDS011;58088;51.186;17.130;2024-03-02T08:56:50;45.50;;;26.60;;
70532;SDS011;58088;51.186;17.130;2024-03-02T08:59:17;44.10;;;24.50;;
70532;SDS011;58088;51.186;17.130;2024-03-02T09:01:43;35.90;;;21.00;;
70532;SDS011;58088;51.186;17.130;2024-03-02T09:04:10;39.60;;;21.60;;
70532;SDS011;58088;51.186;17.130;2024-03-02T09:06:37;42.00;;;23.70;;
70532;SDS011;58088;51.186;17.130;2024-03-02T09:09:04;44.90;;;25.00;;
70532;SDS011;58088;51.186;17.130;2024-03-02T09:11:30;38.00;;;20.00;;
70532;SDS011;58088;51.186;17.130;2024-03-02T09:13:58;41.40;;;24.70;;
70532;SDS011;58088;51.186;17.130;2024-03-02T09:16:24;43.10;;;24.10;;
70532;SDS011;58088;51.186;17.130;2024-03-02T09:18:56;38.70;;;22.00;;
70532;SDS011;58088;51.186;17.130;2024-03-02T09:21:23;40.00;;;22.70;;
70532;SDS011;58088;51.186;17.130;2024-03-02T09:23:51;39.50;;;21.00;;
70532;SDS011;58088;51.186;17.130;2024-03-02T09:26:17;38.50;;;21.70;;
70532;SDS011;58088;51.186;17.130;2024-03-02T09:28:45;38.00;;;22.90;;
70532;SDS011;58088;51.186;17.130;2024-03-02T09:31:11;35.00;;;20.90;;
70532;SDS011;58088;51.186;17.130;2024-03-02T09:33:38;39.50;;;21.40;;
70532;SDS011;58088;51.186;17.130;2024-03-02T09:36:05;40.90;;;22.00;;
70532;SDS011;58088;51.186;17.130;2024-03-02T09:38:32;36.80;;;21.60;;
70532;SDS011;58088;51.186;17.130;2024-03-02T09:41:00;39.60;;;23.60;;
70532;SDS011;58088;51.186;17.130;2024-03-02T09:43:27;38.60;;;23.20;;
70532;SDS011;58088;51.186;17.130;2024-03-02T09:45:53;40.80;;;21.70;;
70532;SDS011;58088;51.186;17.130;2024-03-02T09:48:20;37.10;;;21.50;;
70532;SDS011;58088;51.186;17.130;2024-03-02T09:50:46;35.20;;;20.50;;
70532;SDS011;58088;51.186;17.130;2024-03-02T09:53:13;35.80;;;20.50;;
70532;SDS011;58088;51.186;17.130;2024-03-02T09:55:41;33.80;;;20.30;;
70532;SDS011;58088;51.186;17.130;2024-03-02T09:58:12;34.90;;;20.80;;
70532;SDS011;58088;51.186;17.130;2024-03-02T10:00:38;28.70;;;15.90;;
70532;SDS011;58088;51.186;17.130;2024-03-02T10:03:04;40.00;;;21.70;;
70532;SDS011;58088;51.186;17.130;2024-03-02T10:05:31;38.40;;;20.70;;
70532;SDS011;58088;51.186;17.130;2024-03-02T10:08:02;33.00;;;17.20;;
70532;SDS011;58088;51.186;17.130;2024-03-02T10:13:13;35.60;;;20.00;;
70532;SDS011;58088;51.186;17.130;2024-03-02T10:15:41;34.70;;;20.60;;
70532;SDS011;58088;51.186;17.130;2024-03-02T10:18:11;37.00;;;19.20;;
70532;SDS011;58088;51.186;17.130;2024-03-02T10:20:41;26.80;;;15.40;;
70532;SDS011;58088;51.186;17.130;2024-03-02T10:23:17;31.70;;;18.50;;
70532;SDS011;58088;51.186;17.130;2024-03-02T10:25:44;32.20;;;17.90;;
70532;SDS011;58088;51.186;17.130;2024-03-02T10:28:10;31.60;;;19.90;;
70532;SDS011;58088;51.186;17.130;2024-03-02T10:30:37;34.20;;;18.50;;
70532;SDS011;58088;51.186;17.130;2024-03-02T10:33:05;29.60;;;18.40;;
70532;SDS011;58088;51.186;17.130;2024-03-02T10:35:32;31.30;;;19.20;;
70532;SDS011;58088;51.186;17.130;2024-03-02T10:38:04;32.20;;;19.20;;
70532;SDS011;58088;51.186;17.130;2024-03-02T10:40:32;32.00;;;19.20;;
70532;SDS011;58088;51.186;17.130;2024-03-02T10:42:59;29.70;;;16.60;;
70532;SDS011;58088;51.186;17.130;2024-03-02T10:45:29;33.30;;;19.30;;
70532;SDS011;58088;51.186;17.130;2024-03-02T10:47:55;32.20;;;18.90;;
70532;SDS011;58088;51.186;17.130;2024-03-02T10:50:23;30.10;;;17.50;;
70532;SDS011;58088;51.186;17.130;2024-03-02T10:52:50;30.40;;;18.30;;
70532;SDS011;58088;51.186;17.130;2024-03-02T10:55:17;31.60;;;19.10;;
70532;SDS011;58088;51.186;17.130;2024-03-02T10:57:54;32.40;;;18.10;;
70532;SDS011;58088;51.186;17.130;2024-03-02T11:00:24;32.90;;;18.50;;
70532;SDS011;58088;51.186;17.130;2024-03-02T11:03:04;28.20;;;15.70;;
70532;SDS011;58088;51.186;17.130;2024-03-02T11:05:39;29.60;;;17.50;;
70532;SDS011;58088;51.186;17.130;2024-03-02T11:08:13;29.30;;;16.80;;
70532;SDS011;58088;51.186;17.130;2024-03-02T11:13:22;27.80;;;16.20;;
70532;SDS011;58088;51.186;17.130;2024-03-02T11:15:55;29.20;;;18.20;;
70532;SDS011;58088;51.186;17.130;2024-03-02T11:18:29;28.70;;;16.90;;
70532;SDS011;58088;51.186;17.130;2024-03-02T11:20:58;28.60;;;17.00;;
70532;SDS011;58088;51.186;17.130;2024-03-02T11:23:34;28.90;;;16.10;;
70532;SDS011;58088;51.186;17.130;2024-03-02T11:26:20;30.00;;;17.00;;
70532;SDS011;58088;51.186;17.130;2024-03-02T11:28:48;29.70;;;16.80;;
70532;SDS011;58088;51.186;17.130;2024-03-02T11:31:14;25.70;;;15.60;;
70532;SDS011;58088;51.186;17.130;2024-03-02T11:33:40;27.00;;;14.80;;
70532;SDS011;58088;51.186;17.130;2024-03-02T11:36:07;27.10;;;15.50;;
70532;SDS011;58088;51.186;17.130;2024-03-02T11:38:35;26.70;;;16.30;;
70532;SDS011;58088;51.186;17.130;2024-03-02T11:41:11;31.10;;;16.50;;
70532;SDS011;58088;51.186;17.130;2024-03-02T11:43:38;21.80;;;12.30;;
70532;SDS011;58088;51.186;17.130;2024-03-02T11:46:10;28.70;;;15.90;;
70532;SDS011;58088;51.186;17.130;2024-03-02T11:48:38;27.20;;;15.90;;
70532;SDS011;58088;51.186;17.130;2024-03-02T11:51:05;29.60;;;16.90;;
70532;SDS011;58088;51.186;17.130;2024-03-02T11:53:32;28.00;;;16.90;;
70532;SDS011;58088;51.186;17.130;2024-03-02T11:56:01;27.70;;;16.70;;
70532;SDS011;58088;51.186;17.130;2024-03-02T11:58:27;25.50;;;16.50;;
70532;SDS011;58088;51.186;17.130;2024-03-02T12:00:55;27.60;;;15.70;;
70532;SDS011;58088;51.186;17.130;2024-03-02T12:03:23;23.20;;;14.20;;
70532;SDS011;58088;51.186;17.130;2024-03-02T12:05:54;24.10;;;14.50;;
70532;SDS011;58088;51.186;17.130;2024-03-02T12:08:21;27.60;;;13.90;;
70532;SDS011;58088;51.186;17.130;2024-03-02T12:10:59;22.40;;;13.10;;
70532;SDS011;58088;51.186;17.130;2024-03-02T12:13:27;22.80;;;12.30;;
70532;SDS011;58088;51.186;17.130;2024-03-02T12:15:54;22.90;;;13.30;;
70532;SDS011;58088;51.186;17.130;2024-03-02T12:18:24;22.30;;;12.60;;
70532;SDS011;58088;51.186;17.130;2024-03-02T12:20:51;20.70;;;12.70;;
70532;SDS011;58088;51.186;17.130;2024-03-02T12:23:18;22.20;;;12.90;;
70532;SDS011;58088;51.186;17.130;2024-03-02T12:25:46;23.30;;;12.90;;
70532;SDS011;58088;51.186;17.130;2024-03-02T12:28:12;24.10;;;12.40;;
70532;SDS011;58088;51.186;17.130;2024-03-02T12:30:39;22.30;;;13.00;;
70532;SDS011;58088;51.186;17.130;2024-03-02T12:33:05;31.40;;;16.40;;
70532;SDS011;58088;51.186;17.130;2024-03-02T12:35:31;23.50;;;13.50;;
70532;SDS011;58088;51.186;17.130;2024-03-02T12:37:58;22.70;;;12.40;;
70532;SDS011;58088;51.186;17.130;2024-03-02T12:40:24;24.30;;;13.00;;
70532;SDS011;58088;51.186;17.130;2024-03-02T12:42:50;18.60;;;11.50;;
70532;SDS011;58088;51.186;17.130;2024-03-02T12:45:17;27.00;;;13.80;;
70532;SDS011;58088;51.186;17.130;2024-03-02T12:47:53;22.40;;;13.10;;
70532;SDS011;58088;51.186;17.130;2024-03-02T12:50:20;25.10;;;12.80;;
70532;SDS011;58088;51.186;17.130;2024-03-02T12:52:53;23.40;;;12.90;;
70532;SDS011;58088;51.186;17.130;2024-03-02T12:55:21;20.30;;;12.60;;
70532;SDS011;58088;51.186;17.130;2024-03-02T12:57:52;21.70;;;11.90;;
70532;SDS011;58088;51.186;17.130;2024-03-02T13:00:20;22.50;;;13.20;;
70532;SDS011;58088;51.186;17.130;2024-03-02T13:02:47;21.50;;;12.50;;
70532;SDS011;58088;51.186;17.130;2024-03-02T13:05:17;26.00;;;13.60;;
70532;SDS011;58088;51.186;17.130;2024-03-02T13:07:43;25.10;;;13.50;;
70532;SDS011;58088;51.186;17.130;2024-03-02T13:10:12;21.60;;;12.40;;
70532;SDS011;58088;51.186;17.130;2024-03-02T13:12:39;21.30;;;11.90;;
70532;SDS011;58088;51.186;17.130;2024-03-02T13:15:05;20.90;;;12.90;;
70532;SDS011;58088;51.186;17.130;2024-03-02T13:17:34;20.70;;;11.70;;
70532;SDS011;58088;51.186;17.130;2024-03-02T13:20:01;22.10;;;12.60;;
70532;SDS011;58088;51.186;17.130;2024-03-02T13:22:30;21.40;;;12.20;;
70532;SDS011;58088;51.186;17.130;2024-03-02T13:24:56;23.30;;;11.70;;
70532;SDS011;58088;51.186;17.130;2024-03-02T13:27:23;18.50;;;10.80;;
70532;SDS011;58088;51.186;17.130;2024-03-02T13:29:49;18.30;;;9.80;;
70532;SDS011;58088;51.186;17.130;2024-03-02T13:32:16;23.50;;;11.00;;
70532;SDS011;58088;51.186;17.130;2024-03-02T13:34:43;19.20;;;11.60;;
70532;SDS011;58088;51.186;17.130;2024-03-02T13:37:09;22.40;;;11.70;;
70532;SDS011;58088;51.186;17.130;2024-03-02T13:39:36;17.90;;;9.50;;
70532;SDS011;58088;51.186;17.130;2024-03-02T13:42:09;18.40;;;11.40;;
70532;SDS011;58088;51.186;17.130;2024-03-02T13:44:37;19.00;;;11.20;;
70532;SDS011;58088;51.186;17.130;2024-03-02T13:47:04;21.00;;;11.20;;
70532;SDS011;58088;51.186;17.130;2024-03-02T13:49:32;18.10;;;11.50;;
70532;SDS011;58088;51.186;17.130;2024-03-02T13:52:09;20.30;;;11.40;;
70532;SDS011;58088;51.186;17.130;2024-03-02T13:54:44;18.60;;;10.50;;
70532;SDS011;58088;51.186;17.130;2024-03-02T13:57:11;17.50;;;11.50;;
70532;SDS011;58088;51.186;17.130;2024-03-02T13:59:40;19.10;;;10.90;;
70532;SDS011;58088;51.186;17.130;2024-03-02T14:02:08;17.50;;;10.60;;
70532;SDS011;58088;51.186;17.130;2024-03-02T14:04:35;17.40;;;9.80;;
70532;SDS011;58088;51.186;17.130;2024-03-02T14:07:02;18.80;;;10.50;;
70532;SDS011;58088;51.186;17.130;2024-03-02T14:09:28;19.90;;;10.60;;
70532;SDS011;58088;51.186;17.130;2024-03-02T14:11:55;19.00;;;10.80;;
70532;SDS011;58088;51.186;17.130;2024-03-02T14:14:22;16.50;;;9.80;;
70532;SDS011;58088;51.186;17.130;2024-03-02T14:16:49;19.60;;;11.40;;
70532;SDS011;58088;51.186;17.130;2024-03-02T14:19:20;19.10;;;10.70;;
70532;SDS011;58088;51.186;17.130;2024-03-02T14:21:48;18.60;;;11.20;;
70532;SDS011;58088;51.186;17.130;2024-03-02T14:24:31;20.60;;;10.80;;